sensor_id;sensor_type;location;lat;lon;timestamp;P1;durP1;ratioP1;P2;durP2;ratioP2
20458;SDS011;10388;52.314;7.938;2023-02-26T00:01:12;1.60;;;1.50;;
20458;SDS011;10388;52.314;7.938;2023-02-26T00:03:47;2.60;;;1.50;;
20458;SDS011;10388;52.314;7.938;2023-02-26T00:06:21;5.63;;;1.67;;
20458;SDS011;10388;52.314;7.938;2023-02-26T00:08:52;2.30;;;1.70;;
20458;SDS011;10388;52.314;7.938;2023-02-26T00:11:23;2.90;;;1.53;;
20458;SDS011;10388;52.314;7.938;2023-02-26T00:13:54;2.17;;;1.40;;
20458;SDS011;10388;52.314;7.938;2023-02-26T00:16:29;4.87;;;1.70;;
20458;SDS011;10388;52.314;7.938;2023-02-26T00:19:03;4.60;;;1.70;;
20458;SDS011;10388;52.314;7.938;2023-02-26T00:21:35;2.20;;;1.60;;
20458;SDS011;10388;52.314;7.938;2023-02-26T00:24:06;2.40;;;1.90;;
20458;SDS011;10388;52.314;7.938;2023-02-26T00:26:37;3.73;;;2.40;;
20458;SDS011;10388;52.314;7.938;2023-02-26T00:29:07;2.80;;;2.20;;
20458;SDS011;10388;52.314;7.938;2023-02-26T00:31:38;3.90;;;2.40;;
20458;SDS011;10388;52.314;7.938;2023-02-26T00:34:10;3.40;;;2.23;;
20458;SDS011;10388;52.314;7.938;2023-02-26T00:36:58;7.10;;;2.80;;
20458;SDS011;10388;52.314;7.938;2023-02-26T00:42:15;5.20;;;2.30;;
20458;SDS011;10388;52.314;7.938;2023-02-26T00:44:46;3.03;;;2.50;;
20458;SDS011;10388;52.314;7.938;2023-02-26T00:47:23;4.30;;;2.40;;
20458;SDS011;10388;52.314;7.938;2023-02-26T00:50:18;5.83;;;2.27;;
20458;SDS011;10388;52.314;7.938;2023-02-26T00:55:47;2.97;;;2.10;;
20458;SDS011;10388;52.314;7.938;2023-02-26T00:58:18;3.37;;;2.10;;
20458;SDS011;10388;52.314;7.938;2023-02-26T01:57:49;3.07;;;2.00;;
20458;SDS011;10388;52.314;7.938;2023-02-26T02:01:05;6.70;;;1.60;;
20458;SDS011;10388;52.314;7.938;2023-02-26T02:04:19;1.93;;;1.43;;
20458;SDS011;10388;52.314;7.938;2023-02-26T04:31:03;2.07;;;1.30;;
20458;SDS011;10388;52.314;7.938;2023-02-26T04:33:34;6.93;;;1.20;;
20458;SDS011;10388;52.314;7.938;2023-02-26T04:36:05;3.80;;;2.00;;
20458;SDS011;10388;52.314;7.938;2023-02-26T04:38:35;2.93;;;1.17;;
20458;SDS011;10388;52.314;7.938;2023-02-26T04:41:06;2.70;;;1.50;;
20458;SDS011;10388;52.314;7.938;2023-02-26T04:43:37;2.67;;;1.20;;
20458;SDS011;10388;52.314;7.938;2023-02-26T04:46:07;2.87;;;1.70;;
20458;SDS011;10388;52.314;7.938;2023-02-26T04:48:38;1.57;;;1.20;;
20458;SDS011;10388;52.314;7.938;2023-02-26T04:51:09;1.93;;;1.20;;
20458;SDS011;10388;52.314;7.938;2023-02-26T04:53:39;1.20;;;0.97;;
20458;SDS011;10388;52.314;7.938;2023-02-26T04:56:10;1.53;;;1.23;;
20458;SDS011;10388;52.314;7.938;2023-02-26T04:58:40;2.20;;;1.13;;
20458;SDS011;10388;52.314;7.938;2023-02-26T05:01:11;2.03;;;1.10;;
20458;SDS011;10388;52.314;7.938;2023-02-26T05:03:42;2.03;;;1.20;;
20458;SDS011;10388;52.314;7.938;2023-02-26T05:06:13;2.27;;;1.10;;
20458;SDS011;10388;52.314;7.938;2023-02-26T05:08:43;7.10;;;1.50;;
20458;SDS011;10388;52.314;7.938;2023-02-26T05:11:14;2.57;;;1.20;;
20458;SDS011;10388;52.314;7.938;2023-02-26T05:13:45;1.47;;;1.03;;
20458;SDS011;10388;52.314;7.938;2023-02-26T05:16:15;1.30;;;1.10;;
20458;SDS011;10388;52.314;7.938;2023-02-26T05:18:46;2.03;;;1.20;;
20458;SDS011;10388;52.314;7.938;2023-02-26T05:21:16;3.73;;;1.13;;
20458;SDS011;10388;52.314;7.938;2023-02-26T05:23:47;3.03;;;1.20;;
20458;SDS011;10388;52.314;7.938;2023-02-26T05:26:18;1.30;;;1.07;;
20458;SDS011;10388;52.314;7.938;2023-02-26T05:28:48;1.17;;;1.07;;
20458;SDS011;10388;52.314;7.938;2023-02-26T05:31:19;3.27;;;1.30;;
20458;SDS011;10388;52.314;7.938;2023-02-26T05:33:50;3.63;;;1.27;;
20458;SDS011;10388;52.314;7.938;2023-02-26T05:36:20;3.00;;;1.30;;
20458;SDS011;10388;52.314;7.938;2023-02-26T05:38:51;5.30;;;1.50;;
20458;SDS011;10388;52.314;7.938;2023-02-26T05:41:23;1.60;;;1.30;;
20458;SDS011;10388;52.314;7.938;2023-02-26T05:43:53;7.57;;;2.40;;
20458;SDS011;10388;52.314;7.938;2023-02-26T05:46:24;4.00;;;2.30;;
20458;SDS011;10388;52.314;7.938;2023-02-26T05:48:54;1.77;;;1.30;;
20458;SDS011;10388;52.314;7.938;2023-02-26T05:51:25;2.23;;;1.40;;
20458;SDS011;10388;52.314;7.938;2023-02-26T05:53:56;2.17;;;1.90;;
20458;SDS011;10388;52.314;7.938;2023-02-26T05:56:26;7.20;;;3.27;;
20458;SDS011;10388;52.314;7.938;2023-02-26T05:58:57;3.27;;;2.97;;
20458;SDS011;10388;52.314;7.938;2023-02-26T06:01:27;3.33;;;2.23;;
20458;SDS011;10388;52.314;7.938;2023-02-26T06:03:58;2.80;;;1.93;;
20458;SDS011;10388;52.314;7.938;2023-02-26T06:06:28;3.97;;;2.03;;
20458;SDS011;10388;52.314;7.938;2023-02-26T06:08:59;3.07;;;2.57;;
20458;SDS011;10388;52.314;7.938;2023-02-26T06:11:31;5.47;;;3.03;;
20458;SDS011;10388;52.314;7.938;2023-02-26T06:14:01;3.40;;;2.67;;
20458;SDS011;10388;52.314;7.938;2023-02-26T06:16:32;8.30;;;5.27;;
20458;SDS011;10388;52.314;7.938;2023-02-26T06:19:04;4.57;;;3.40;;
20458;SDS011;10388;52.314;7.938;2023-02-26T06:21:35;5.97;;;3.27;;
20458;SDS011;10388;52.314;7.938;2023-02-26T06:24:05;4.53;;;3.17;;
20458;SDS011;10388;52.314;7.938;2023-02-26T06:26:36;3.97;;;3.43;;
20458;SDS011;10388;52.314;7.938;2023-02-26T06:29:07;10.50;;;7.47;;
20458;SDS011;10388;52.314;7.938;2023-02-26T06:31:37;5.67;;;3.10;;
20458;SDS011;10388;52.314;7.938;2023-02-26T06:34:08;4.10;;;3.47;;
20458;SDS011;10388;52.314;7.938;2023-02-26T06:36:38;3.47;;;1.73;;
20458;SDS011;10388;52.314;7.938;2023-02-26T06:39:09;3.80;;;1.80;;
20458;SDS011;10388;52.314;7.938;2023-02-26T06:41:41;6.10;;;1.70;;
20458;SDS011;10388;52.314;7.938;2023-02-26T06:44:12;3.20;;;1.53;;
20458;SDS011;10388;52.314;7.938;2023-02-26T06:46:42;4.03;;;1.53;;
20458;SDS011;10388;52.314;7.938;2023-02-26T06:49:13;4.10;;;1.33;;
20458;SDS011;10388;52.314;7.938;2023-02-26T06:51:43;2.60;;;1.70;;
20458;SDS011;10388;52.314;7.938;2023-02-26T06:54:14;2.17;;;1.23;;
20458;SDS011;10388;52.314;7.938;2023-02-26T06:56:45;2.97;;;1.57;;
20458;SDS011;10388;52.314;7.938;2023-02-26T06:59:15;1.80;;;1.33;;
20458;SDS011;10388;52.314;7.938;2023-02-26T07:01:46;4.60;;;1.30;;
20458;SDS011;10388;52.314;7.938;2023-02-26T07:04:16;2.40;;;1.57;;
20458;SDS011;10388;52.314;7.938;2023-02-26T07:06:47;5.03;;;1.70;;
20458;SDS011;10388;52.314;7.938;2023-02-26T07:09:17;5.23;;;2.90;;
20458;SDS011;10388;52.314;7.938;2023-02-26T07:11:51;5.70;;;2.33;;
20458;SDS011;10388;52.314;7.938;2023-02-26T07:14:21;4.00;;;1.87;;
20458;SDS011;10388;52.314;7.938;2023-02-26T07:16:52;5.10;;;1.93;;
20458;SDS011;10388;52.314;7.938;2023-02-26T07:19:22;1.80;;;1.27;;
20458;SDS011;10388;52.314;7.938;2023-02-26T07:21:53;4.10;;;1.70;;
20458;SDS011;10388;52.314;7.938;2023-02-26T07:24:24;5.40;;;1.40;;
20458;SDS011;10388;52.314;7.938;2023-02-26T07:26:54;7.03;;;1.40;;
20458;SDS011;10388;52.314;7.938;2023-02-26T07:29:25;1.77;;;1.30;;
20458;SDS011;10388;52.314;7.938;2023-02-26T07:31:55;2.57;;;1.30;;
20458;SDS011;10388;52.314;7.938;2023-02-26T07:34:26;3.77;;;1.40;;
20458;SDS011;10388;52.314;7.938;2023-02-26T07:36:56;1.30;;;1.20;;
20458;SDS011;10388;52.314;7.938;2023-02-26T07:39:28;3.47;;;1.30;;
20458;SDS011;10388;52.314;7.938;2023-02-26T07:41:58;1.20;;;1.10;;
20458;SDS011;10388;52.314;7.938;2023-02-26T07:47:02;1.67;;;1.10;;
20458;SDS011;10388;52.314;7.938;2023-02-26T07:49:32;3.33;;;1.17;;
20458;SDS011;10388;52.314;7.938;2023-02-26T07:52:03;6.17;;;2.20;;
20458;SDS011;10388;52.314;7.938;2023-02-26T07:54:34;7.17;;;2.27;;
20458;SDS011;10388;52.314;7.938;2023-02-26T07:57:05;5.23;;;2.00;;
20458;SDS011;10388;52.314;7.938;2023-02-26T07:59:36;3.93;;;3.53;;
20458;SDS011;10388;52.314;7.938;2023-02-26T08:02:06;5.03;;;2.13;;
20458;SDS011;10388;52.314;7.938;2023-02-26T08:04:37;3.10;;;2.70;;
20458;SDS011;10388;52.314;7.938;2023-02-26T08:07:08;6.30;;;2.47;;
20458;SDS011;10388;52.314;7.938;2023-02-26T08:09:39;4.27;;;1.60;;
20458;SDS011;10388;52.314;7.938;2023-02-26T08:12:10;4.40;;;2.50;;
20458;SDS011;10388;52.314;7.938;2023-02-26T08:14:40;2.97;;;1.80;;
20458;SDS011;10388;52.314;7.938;2023-02-26T08:17:11;2.77;;;1.40;;
20458;SDS011;10388;52.314;7.938;2023-02-26T08:19:41;5.93;;;2.30;;
20458;SDS011;10388;52.314;7.938;2023-02-26T08:22:12;2.53;;;1.40;;
20458;SDS011;10388;52.314;7.938;2023-02-26T08:24:43;2.63;;;1.33;;
20458;SDS011;10388;52.314;7.938;2023-02-26T08:27:13;1.53;;;1.03;;
20458;SDS011;10388;52.314;7.938;2023-02-26T08:29:44;3.60;;;1.50;;
20458;SDS011;10388;52.314;7.938;2023-02-26T08:32:15;2.30;;;1.40;;
20458;SDS011;10388;52.314;7.938;2023-02-26T08:34:48;1.20;;;1.00;;
20458;SDS011;10388;52.314;7.938;2023-02-26T08:37:18;2.93;;;1.17;;
20458;SDS011;10388;52.314;7.938;2023-02-26T08:39:51;2.83;;;1.40;;
20458;SDS011;10388;52.314;7.938;2023-02-26T08:42:22;1.93;;;1.10;;
20458;SDS011;10388;52.314;7.938;2023-02-26T08:44:52;1.70;;;1.20;;
20458;SDS011;10388;52.314;7.938;2023-02-26T08:47:23;3.60;;;1.30;;
20458;SDS011;10388;52.314;7.938;2023-02-26T08:49:53;3.00;;;2.03;;
20458;SDS011;10388;52.314;7.938;2023-02-26T08:52:24;0.90;;;0.90;;
20458;SDS011;10388;52.314;7.938;2023-02-26T08:54:55;2.67;;;1.37;;
20458;SDS011;10388;52.314;7.938;2023-02-26T08:57:26;3.87;;;1.10;;
20458;SDS011;10388;52.314;7.938;2023-02-26T08:59:56;2.17;;;1.10;;
20458;SDS011;10388;52.314;7.938;2023-02-26T09:02:27;1.30;;;1.03;;
20458;SDS011;10388;52.314;7.938;2023-02-26T09:04:57;2.37;;;1.20;;
20458;SDS011;10388;52.314;7.938;2023-02-26T09:07:28;3.90;;;1.20;;
20458;SDS011;10388;52.314;7.938;2023-02-26T09:09:58;1.90;;;1.00;;
20458;SDS011;10388;52.314;7.938;2023-02-26T09:12:29;2.70;;;1.00;;
20458;SDS011;10388;52.314;7.938;2023-02-26T09:15:04;2.03;;;1.20;;
20458;SDS011;10388;52.314;7.938;2023-02-26T09:17:36;5.90;;;3.50;;
20458;SDS011;10388;52.314;7.938;2023-02-26T09:20:07;7.83;;;3.30;;
20458;SDS011;10388;52.314;7.938;2023-02-26T09:22:39;5.20;;;2.27;;
20458;SDS011;10388;52.314;7.938;2023-02-26T09:25:10;14.23;;;5.57;;
20458;SDS011;10388;52.314;7.938;2023-02-26T09:27:41;15.50;;;8.93;;
20458;SDS011;10388;52.314;7.938;2023-02-26T09:30:11;5.70;;;4.30;;
20458;SDS011;10388;52.314;7.938;2023-02-26T09:32:42;13.50;;;8.30;;
20458;SDS011;10388;52.314;7.938;2023-02-26T09:35:13;11.03;;;7.47;;
20458;SDS011;10388;52.314;7.938;2023-02-26T09:37:44;15.73;;;11.27;;
20458;SDS011;10388;52.314;7.938;2023-02-26T09:40:20;10.63;;;7.27;;
20458;SDS011;10388;52.314;7.938;2023-02-26T09:43:15;10.87;;;9.43;;
20458;SDS011;10388;52.314;7.938;2023-02-26T09:46:05;4.83;;;3.10;;
20458;SDS011;10388;52.314;7.938;2023-02-26T09:48:52;5.17;;;4.57;;
20458;SDS011;10388;52.314;7.938;2023-02-26T09:51:34;6.67;;;4.23;;
20458;SDS011;10388;52.314;7.938;2023-02-26T09:54:14;2.87;;;1.83;;
20458;SDS011;10388;52.314;7.938;2023-02-26T09:56:50;2.30;;;1.90;;
20458;SDS011;10388;52.314;7.938;2023-02-26T09:59:22;1.53;;;1.23;;
20458;SDS011;10388;52.314;7.938;2023-02-26T10:02:15;1.07;;;0.93;;
20458;SDS011;10388;52.314;7.938;2023-02-26T10:05:19;1.57;;;1.00;;
20458;SDS011;10388;52.314;7.938;2023-02-26T10:11:09;2.30;;;1.27;;
20458;SDS011;10388;52.314;7.938;2023-02-26T10:13:45;1.87;;;0.83;;
20458;SDS011;10388;52.314;7.938;2023-02-26T10:16:21;2.40;;;1.17;;
20458;SDS011;10388;52.314;7.938;2023-02-26T10:18:54;1.07;;;0.70;;
20458;SDS011;10388;52.314;7.938;2023-02-26T10:21:33;4.97;;;1.27;;
20458;SDS011;10388;52.314;7.938;2023-02-26T10:24:21;2.23;;;1.20;;
20458;SDS011;10388;52.314;7.938;2023-02-26T10:26:57;2.70;;;0.83;;
20458;SDS011;10388;52.314;7.938;2023-02-26T10:29:35;5.10;;;1.43;;
20458;SDS011;10388;52.314;7.938;2023-02-26T10:32:32;5.37;;;3.27;;
20458;SDS011;10388;52.314;7.938;2023-02-26T10:35:12;9.70;;;5.10;;
20458;SDS011;10388;52.314;7.938;2023-02-26T10:37:59;8.10;;;3.90;;
20458;SDS011;10388;52.314;7.938;2023-02-26T10:40:36;4.77;;;3.50;;
20458;SDS011;10388;52.314;7.938;2023-02-26T10:43:37;3.53;;;1.70;;
20458;SDS011;10388;52.314;7.938;2023-02-26T10:46:21;2.13;;;1.13;;
20458;SDS011;10388;52.314;7.938;2023-02-26T10:52:00;1.23;;;1.00;;
20458;SDS011;10388;52.314;7.938;2023-02-26T10:54:49;1.40;;;0.90;;
20458;SDS011;10388;52.314;7.938;2023-02-26T10:57:31;1.73;;;0.90;;
20458;SDS011;10388;52.314;7.938;2023-02-26T11:00:06;1.77;;;1.00;;
20458;SDS011;10388;52.314;7.938;2023-02-26T11:02:50;1.77;;;0.93;;
20458;SDS011;10388;52.314;7.938;2023-02-26T11:05:24;3.77;;;1.00;;
20458;SDS011;10388;52.314;7.938;2023-02-26T11:08:03;4.27;;;1.20;;
20458;SDS011;10388;52.314;7.938;2023-02-26T11:10:40;2.70;;;0.90;;
20458;SDS011;10388;52.314;7.938;2023-02-26T11:13:21;2.13;;;1.20;;
20458;SDS011;10388;52.314;7.938;2023-02-26T11:16:00;1.47;;;1.00;;
20458;SDS011;10388;52.314;7.938;2023-02-26T11:18:48;1.10;;;1.00;;
20458;SDS011;10388;52.314;7.938;2023-02-26T11:21:27;1.10;;;1.00;;
20458;SDS011;10388;52.314;7.938;2023-02-26T11:24:04;3.13;;;0.90;;
20458;SDS011;10388;52.314;7.938;2023-02-26T11:26:38;1.10;;;0.90;;
20458;SDS011;10388;52.314;7.938;2023-02-26T11:29:14;4.10;;;1.17;;
20458;SDS011;10388;52.314;7.938;2023-02-26T11:31:49;1.00;;;0.80;;
20458;SDS011;10388;52.314;7.938;2023-02-26T11:34:21;1.20;;;0.90;;
20458;SDS011;10388;52.314;7.938;2023-02-26T11:36:54;1.00;;;1.00;;
20458;SDS011;10388;52.314;7.938;2023-02-26T11:39:27;1.10;;;1.00;;
20458;SDS011;10388;52.314;7.938;2023-02-26T11:42:03;1.00;;;0.90;;
20458;SDS011;10388;52.314;7.938;2023-02-26T11:44:35;2.13;;;0.90;;
20458;SDS011;10388;52.314;7.938;2023-02-26T11:47:42;2.53;;;1.07;;
20458;SDS011;10388;52.314;7.938;2023-02-26T11:50:11;3.17;;;1.07;;
20458;SDS011;10388;52.314;7.938;2023-02-26T11:52:46;2.17;;;1.20;;
20458;SDS011;10388;52.314;7.938;2023-02-26T11:55:28;2.90;;;0.73;;
20458;SDS011;10388;52.314;7.938;2023-02-26T11:58:03;1.00;;;0.90;;
20458;SDS011;10388;52.314;7.938;2023-02-26T12:00:45;3.53;;;1.33;;
20458;SDS011;10388;52.314;7.938;2023-02-26T12:03:23;5.43;;;1.50;;
20458;SDS011;10388;52.314;7.938;2023-02-26T12:05:58;1.23;;;0.80;;
20458;SDS011;10388;52.314;7.938;2023-02-26T12:08:34;3.53;;;0.70;;
20458;SDS011;10388;52.314;7.938;2023-02-26T12:16:45;1.47;;;0.93;;
20458;SDS011;10388;52.314;7.938;2023-02-26T12:25:17;3.27;;;1.13;;
20458;SDS011;10388;52.314;7.938;2023-02-26T12:31:22;2.37;;;0.90;;
20458;SDS011;10388;52.314;7.938;2023-02-26T12:40:04;1.77;;;0.90;;
20458;SDS011;10388;52.314;7.938;2023-02-26T12:42:58;2.50;;;0.90;;
20458;SDS011;10388;52.314;7.938;2023-02-26T12:54:13;1.00;;;0.90;;
20458;SDS011;10388;52.314;7.938;2023-02-26T13:17:54;0.97;;;0.93;;
20458;SDS011;10388;52.314;7.938;2023-02-26T13:20:27;1.23;;;0.87;;
20458;SDS011;10388;52.314;7.938;2023-02-26T13:23:02;1.23;;;1.03;;
20458;SDS011;10388;52.314;7.938;2023-02-26T13:25:49;1.00;;;0.90;;
20458;SDS011;10388;52.314;7.938;2023-02-26T13:28:35;1.13;;;0.90;;
20458;SDS011;10388;52.314;7.938;2023-02-26T13:34:32;1.70;;;0.90;;
20458;SDS011;10388;52.314;7.938;2023-02-26T13:37:16;2.20;;;0.90;;
20458;SDS011;10388;52.314;7.938;2023-02-26T13:43:08;1.00;;;0.90;;
20458;SDS011;10388;52.314;7.938;2023-02-26T13:51:53;2.43;;;1.30;;
20458;SDS011;10388;52.314;7.938;2023-02-26T13:54:34;2.50;;;1.03;;
20458;SDS011;10388;52.314;7.938;2023-02-26T13:57:24;2.13;;;1.00;;
20458;SDS011;10388;52.314;7.938;2023-02-26T14:02:34;2.13;;;0.83;;
20458;SDS011;10388;52.314;7.938;2023-02-26T14:05:32;1.10;;;0.97;;
20458;SDS011;10388;52.314;7.938;2023-02-26T14:08:15;2.10;;;1.20;;
20458;SDS011;10388;52.314;7.938;2023-02-26T14:13:19;1.37;;;1.03;;
20458;SDS011;10388;52.314;7.938;2023-02-26T14:15:57;1.13;;;1.00;;
20458;SDS011;10388;52.314;7.938;2023-02-26T14:23:57;1.80;;;1.10;;
20458;SDS011;10388;52.314;7.938;2023-02-26T14:26:32;0.90;;;0.90;;
20458;SDS011;10388;52.314;7.938;2023-02-26T14:34:29;1.70;;;0.97;;
20458;SDS011;10388;52.314;7.938;2023-02-26T14:37:06;1.57;;;1.10;;
20458;SDS011;10388;52.314;7.938;2023-02-26T14:39:54;1.30;;;0.90;;
20458;SDS011;10388;52.314;7.938;2023-02-26T14:42:43;1.30;;;1.00;;
20458;SDS011;10388;52.314;7.938;2023-02-26T14:47:46;1.10;;;1.00;;
20458;SDS011;10388;52.314;7.938;2023-02-26T14:50:19;1.30;;;0.90;;
20458;SDS011;10388;52.314;7.938;2023-02-26T14:55:38;1.30;;;0.80;;
20458;SDS011;10388;52.314;7.938;2023-02-26T15:06:38;1.00;;;0.90;;
20458;SDS011;10388;52.314;7.938;2023-02-26T15:28:52;24.47;;;11.27;;
20458;SDS011;10388;52.314;7.938;2023-02-26T15:31:32;34.20;;;15.57;;
20458;SDS011;10388;52.314;7.938;2023-02-26T15:34:05;8.83;;;5.03;;
20458;SDS011;10388;52.314;7.938;2023-02-26T15:36:42;21.67;;;9.20;;
20458;SDS011;10388;52.314;7.938;2023-02-26T15:39:15;18.80;;;9.13;;
20458;SDS011;10388;52.314;7.938;2023-02-26T15:41:47;16.40;;;7.17;;
20458;SDS011;10388;52.314;7.938;2023-02-26T15:44:24;10.17;;;5.03;;
20458;SDS011;10388;52.314;7.938;2023-02-26T15:46:58;9.57;;;4.70;;
20458;SDS011;10388;52.314;7.938;2023-02-26T15:49:36;26.80;;;14.13;;
20458;SDS011;10388;52.314;7.938;2023-02-26T15:52:11;14.83;;;7.50;;
20458;SDS011;10388;52.314;7.938;2023-02-26T15:54:47;12.17;;;6.17;;
20458;SDS011;10388;52.314;7.938;2023-02-26T15:57:21;8.97;;;4.07;;
20458;SDS011;10388;52.314;7.938;2023-02-26T15:59:54;9.87;;;5.17;;
20458;SDS011;10388;52.314;7.938;2023-02-26T16:02:39;5.50;;;2.90;;
20458;SDS011;10388;52.314;7.938;2023-02-26T16:05:11;5.97;;;3.13;;
20458;SDS011;10388;52.314;7.938;2023-02-26T16:07:43;11.87;;;5.43;;
20458;SDS011;10388;52.314;7.938;2023-02-26T16:10:31;5.77;;;2.80;;
20458;SDS011;10388;52.314;7.938;2023-02-26T16:13:13;9.80;;;5.33;;
20458;SDS011;10388;52.314;7.938;2023-02-26T16:15:46;14.30;;;7.07;;
20458;SDS011;10388;52.314;7.938;2023-02-26T16:18:19;4.50;;;2.90;;
20458;SDS011;10388;52.314;7.938;2023-02-26T16:20:54;7.40;;;4.00;;
20458;SDS011;10388;52.314;7.938;2023-02-26T16:23:35;5.33;;;3.30;;
20458;SDS011;10388;52.314;7.938;2023-02-26T16:26:15;6.37;;;3.37;;
20458;SDS011;10388;52.314;7.938;2023-02-26T16:28:52;2.67;;;2.00;;
20458;SDS011;10388;52.314;7.938;2023-02-26T16:31:27;5.17;;;3.23;;
20458;SDS011;10388;52.314;7.938;2023-02-26T16:34:21;6.30;;;4.20;;
20458;SDS011;10388;52.314;7.938;2023-02-26T16:40:11;16.37;;;8.40;;
20458;SDS011;10388;52.314;7.938;2023-02-26T16:43:05;17.20;;;8.80;;
20458;SDS011;10388;52.314;7.938;2023-02-26T16:45:58;17.03;;;10.03;;
20458;SDS011;10388;52.314;7.938;2023-02-26T16:48:47;13.70;;;7.67;;
20458;SDS011;10388;52.314;7.938;2023-02-26T16:51:23;15.53;;;7.80;;
20458;SDS011;10388;52.314;7.938;2023-02-26T16:54:01;8.77;;;5.10;;
20458;SDS011;10388;52.314;7.938;2023-02-26T16:56:40;2.37;;;1.87;;
20458;SDS011;10388;52.314;7.938;2023-02-26T16:59:19;8.13;;;4.93;;
20458;SDS011;10388;52.314;7.938;2023-02-26T17:01:54;4.23;;;2.67;;
20458;SDS011;10388;52.314;7.938;2023-02-26T17:04:30;4.30;;;2.83;;
20458;SDS011;10388;52.314;7.938;2023-02-26T17:07:19;5.80;;;3.50;;
20458;SDS011;10388;52.314;7.938;2023-02-26T17:09:54;4.97;;;3.20;;
20458;SDS011;10388;52.314;7.938;2023-02-26T17:12:42;6.80;;;3.20;;
20458;SDS011;10388;52.314;7.938;2023-02-26T17:15:18;4.77;;;3.63;;
20458;SDS011;10388;52.314;7.938;2023-02-26T17:18:05;12.83;;;7.17;;
20458;SDS011;10388;52.314;7.938;2023-02-26T17:20:36;7.57;;;4.80;;
20458;SDS011;10388;52.314;7.938;2023-02-26T17:23:09;15.38;;;8.75;;
20458;SDS011;10388;52.314;7.938;2023-02-26T17:25:44;10.03;;;4.60;;
20458;SDS011;10388;52.314;7.938;2023-02-26T17:28:21;8.83;;;5.17;;
20458;SDS011;10388;52.314;7.938;2023-02-26T17:30:54;8.23;;;3.33;;
20458;SDS011;10388;52.314;7.938;2023-02-26T17:33:25;8.50;;;4.53;;
20458;SDS011;10388;52.314;7.938;2023-02-26T17:36:00;6.03;;;3.10;;
20458;SDS011;10388;52.314;7.938;2023-02-26T17:38:32;4.37;;;3.33;;
20458;SDS011;10388;52.314;7.938;2023-02-26T17:41:03;10.20;;;5.07;;
20458;SDS011;10388;52.314;7.938;2023-02-26T17:43:34;13.37;;;8.33;;
20458;SDS011;10388;52.314;7.938;2023-02-26T17:46:04;6.67;;;4.20;;
20458;SDS011;10388;52.314;7.938;2023-02-26T17:48:35;5.17;;;3.97;;
20458;SDS011;10388;52.314;7.938;2023-02-26T17:51:06;7.77;;;4.70;;
20458;SDS011;10388;52.314;7.938;2023-02-26T17:53:38;8.93;;;5.27;;
20458;SDS011;10388;52.314;7.938;2023-02-26T17:56:22;6.73;;;4.43;;
20458;SDS011;10388;52.314;7.938;2023-02-26T17:58:58;7.17;;;5.97;;
20458;SDS011;10388;52.314;7.938;2023-02-26T18:01:30;12.83;;;6.17;;
20458;SDS011;10388;52.314;7.938;2023-02-26T18:04:00;9.00;;;5.27;;
20458;SDS011;10388;52.314;7.938;2023-02-26T18:06:33;8.40;;;6.37;;
20458;SDS011;10388;52.314;7.938;2023-02-26T18:09:06;5.50;;;3.40;;
20458;SDS011;10388;52.314;7.938;2023-02-26T18:11:39;4.97;;;3.53;;
20458;SDS011;10388;52.314;7.938;2023-02-26T18:14:11;2.53;;;2.10;;
20458;SDS011;10388;52.314;7.938;2023-02-26T18:16:41;3.67;;;2.03;;
20458;SDS011;10388;52.314;7.938;2023-02-26T18:19:14;12.37;;;5.03;;
20458;SDS011;10388;52.314;7.938;2023-02-26T18:21:44;7.00;;;2.90;;
20458;SDS011;10388;52.314;7.938;2023-02-26T18:24:15;8.63;;;3.73;;
20458;SDS011;10388;52.314;7.938;2023-02-26T18:26:45;10.30;;;3.80;;
20458;SDS011;10388;52.314;7.938;2023-02-26T18:29:16;5.50;;;3.23;;
20458;SDS011;10388;52.314;7.938;2023-02-26T18:31:46;4.00;;;2.63;;
20458;SDS011;10388;52.314;7.938;2023-02-26T18:34:17;4.77;;;1.87;;
20458;SDS011;10388;52.314;7.938;2023-02-26T18:36:47;1.83;;;1.63;;
20458;SDS011;10388;52.314;7.938;2023-02-26T18:39:18;2.30;;;2.10;;
20458;SDS011;10388;52.314;7.938;2023-02-26T18:41:49;3.57;;;2.20;;
20458;SDS011;10388;52.314;7.938;2023-02-26T18:44:19;2.53;;;2.00;;
20458;SDS011;10388;52.314;7.938;2023-02-26T18:46:50;2.17;;;1.87;;
20458;SDS011;10388;52.314;7.938;2023-02-26T18:49:20;4.13;;;1.80;;
20458;SDS011;10388;52.314;7.938;2023-02-26T18:51:51;2.90;;;1.80;;
20458;SDS011;10388;52.314;7.938;2023-02-26T18:54:23;3.27;;;2.60;;
20458;SDS011;10388;52.314;7.938;2023-02-26T18:56:53;2.40;;;2.20;;
20458;SDS011;10388;52.314;7.938;2023-02-26T18:59:24;2.40;;;2.20;;
20458;SDS011;10388;52.314;7.938;2023-02-26T19:01:55;2.50;;;2.30;;
20458;SDS011;10388;52.314;7.938;2023-02-26T19:04:25;2.20;;;2.00;;
20458;SDS011;10388;52.314;7.938;2023-02-26T19:06:56;4.70;;;3.00;;
20458;SDS011;10388;52.314;7.938;2023-02-26T19:09:27;2.93;;;2.40;;
20458;SDS011;10388;52.314;7.938;2023-02-26T19:11:57;4.07;;;2.50;;
20458;SDS011;10388;52.314;7.938;2023-02-26T19:14:28;5.63;;;2.60;;
20458;SDS011;10388;52.314;7.938;2023-02-26T19:16:58;2.63;;;2.20;;
20458;SDS011;10388;52.314;7.938;2023-02-26T19:19:29;3.13;;;2.20;;
20458;SDS011;10388;52.314;7.938;2023-02-26T19:21:59;3.40;;;1.80;;
20458;SDS011;10388;52.314;7.938;2023-02-26T19:24:30;4.17;;;1.50;;
20458;SDS011;10388;52.314;7.938;2023-02-26T19:27:02;2.97;;;1.93;;
20458;SDS011;10388;52.314;7.938;2023-02-26T19:29:33;2.10;;;1.70;;
20458;SDS011;10388;52.314;7.938;2023-02-26T19:32:05;1.53;;;1.40;;
20458;SDS011;10388;52.314;7.938;2023-02-26T19:34:37;3.00;;;2.30;;
20458;SDS011;10388;52.314;7.938;2023-02-26T19:37:07;3.17;;;2.00;;
20458;SDS011;10388;52.314;7.938;2023-02-26T19:39:39;2.50;;;2.00;;
20458;SDS011;10388;52.314;7.938;2023-02-26T19:42:10;5.13;;;2.90;;
20458;SDS011;10388;52.314;7.938;2023-02-26T19:44:40;4.70;;;3.03;;
20458;SDS011;10388;52.314;7.938;2023-02-26T19:47:11;6.87;;;3.97;;
20458;SDS011;10388;52.314;7.938;2023-02-26T19:49:41;6.47;;;2.90;;
20458;SDS011;10388;52.314;7.938;2023-02-26T19:52:12;3.50;;;2.30;;
20458;SDS011;10388;52.314;7.938;2023-02-26T19:54:42;4.33;;;2.20;;
20458;SDS011;10388;52.314;7.938;2023-02-26T19:57:13;6.70;;;2.37;;
20458;SDS011;10388;52.314;7.938;2023-02-26T19:59:43;3.17;;;2.83;;
20458;SDS011;10388;52.314;7.938;2023-02-26T20:02:16;2.27;;;1.93;;
20458;SDS011;10388;52.314;7.938;2023-02-26T20:04:46;1.83;;;1.73;;
20458;SDS011;10388;52.314;7.938;2023-02-26T20:07:17;1.93;;;1.73;;
20458;SDS011;10388;52.314;7.938;2023-02-26T20:09:48;4.73;;;2.70;;
20458;SDS011;10388;52.314;7.938;2023-02-26T20:12:24;3.93;;;2.33;;
20458;SDS011;10388;52.314;7.938;2023-02-26T20:14:55;4.30;;;2.20;;
20458;SDS011;10388;52.314;7.938;2023-02-26T20:17:26;2.50;;;2.30;;
20458;SDS011;10388;52.314;7.938;2023-02-26T20:19:57;3.37;;;2.40;;
20458;SDS011;10388;52.314;7.938;2023-02-26T20:22:27;3.47;;;2.43;;
20458;SDS011;10388;52.314;7.938;2023-02-26T20:24:58;2.70;;;1.80;;
20458;SDS011;10388;52.314;7.938;2023-02-26T20:27:28;3.33;;;2.50;;
20458;SDS011;10388;52.314;7.938;2023-02-26T20:29:59;5.90;;;3.10;;
20458;SDS011;10388;52.314;7.938;2023-02-26T20:32:29;4.90;;;1.97;;
20458;SDS011;10388;52.314;7.938;2023-02-26T20:35:00;2.00;;;1.70;;
20458;SDS011;10388;52.314;7.938;2023-02-26T20:37:31;4.00;;;1.80;;
20458;SDS011;10388;52.314;7.938;2023-02-26T20:40:01;3.60;;;2.27;;
20458;SDS011;10388;52.314;7.938;2023-02-26T20:42:35;3.83;;;1.70;;
20458;SDS011;10388;52.314;7.938;2023-02-26T20:45:06;4.13;;;2.20;;
20458;SDS011;10388;52.314;7.938;2023-02-26T20:47:37;5.00;;;2.53;;
20458;SDS011;10388;52.314;7.938;2023-02-26T20:50:07;3.83;;;1.80;;
20458;SDS011;10388;52.314;7.938;2023-02-26T20:52:38;3.70;;;2.27;;
20458;SDS011;10388;52.314;7.938;2023-02-26T20:55:09;4.70;;;2.07;;
20458;SDS011;10388;52.314;7.938;2023-02-26T20:57:39;3.73;;;2.50;;
20458;SDS011;10388;52.314;7.938;2023-02-26T21:00:10;5.33;;;2.70;;